createdAt,value
2022-08-08T00:00:50.572Z,50.84
2022-08-08T00:02:34.112Z,51.19
2022-08-08T00:05:44.144Z,51.58
2022-08-08T00:08:38.070Z,52.27
2022-08-08T00:12:03.020Z,52.87
2022-08-08T00:14:59.972Z,53.63
2022-08-08T00:18:03.986Z,53.33
2022-08-08T00:20:53.348Z,54.59
2022-08-08T00:23:47.740Z,54.74
2022-08-08T00:26:41.276Z,55.67
2022-08-08T00:29:44.446Z,56.42
2022-08-08T00:32:38.546Z,57.31
2022-08-08T00:35:43.190Z,57.52
2022-08-08T00:38:51.425Z,57.75
2022-08-08T00:42:36.786Z,59.41
2022-08-08T00:45:52.436Z,60.56
2022-08-08T00:49:01.102Z,60.67
2022-08-08T00:52:04.131Z,61.23
2022-08-08T00:55:10.333Z,61.87
2022-08-08T00:58:39.074Z,61.71
2022-08-08T01:01:38.027Z,62.88
2022-08-08T01:05:10.792Z,63.03
2022-08-08T01:09:36.921Z,63.51
2022-08-08T01:12:52.120Z,64.45
2022-08-08T01:16:27.849Z,64.63
2022-08-08T01:20:03.589Z,64.69
2022-08-08T01:24:02.725Z,65.48
2022-08-08T01:26:58.853Z,65.82
2022-08-08T01:30:21.694Z,66.04
2022-08-08T01:34:00.082Z,66.16
2022-08-08T01:37:51.149Z,66.44
2022-08-08T01:40:43.768Z,66.75
2022-08-08T01:43:50.916Z,67.20
2022-08-08T01:46:52.761Z,67.18
2022-08-08T01:49:53.483Z,66.82
2022-08-08T01:53:05.213Z,66.83
2022-08-08T01:56:29.335Z,66.87
2022-08-08T01:59:19.454Z,67.06
2022-08-08T02:02:34.453Z,67.68
2022-08-08T02:05:33.848Z,67.26
2022-08-08T02:08:50.473Z,67.53
2022-08-08T02:11:59.860Z,66.64
2022-08-08T02:14:58.826Z,66.80
2022-08-08T02:17:55.600Z,67.40
2022-08-08T02:21:13.363Z,66.88
2022-08-08T02:24:09.702Z,66.69
2022-08-08T02:27:07.334Z,66.60
2022-08-08T02:30:06.537Z,66.47
2022-08-08T02:33:15.353Z,66.92
2022-08-08T02:36:24.721Z,67.00
2022-08-08T02:39:58.334Z,66.62
2022-08-08T02:44:38.105Z,66.79
2022-08-08T02:46:51.472Z,67.28
2022-08-08T02:49:58.877Z,67.01
2022-08-08T02:52:56.356Z,67.41
2022-08-08T02:56:20.579Z,66.98
2022-08-08T02:59:57.956Z,67.32
2022-08-08T03:05:00.355Z,68.03
2022-08-08T03:07:41.907Z,68.42
2022-08-08T03:11:14.034Z,68.62
2022-08-08T03:16:01.860Z,68.82
2022-08-08T03:18:06.703Z,69.11
2022-08-08T03:20:54.118Z,69.17
2022-08-08T03:23:57.478Z,69.48
2022-08-08T03:26:52.617Z,70.32
2022-08-08T03:29:56.354Z,70.10
2022-08-08T03:33:03.751Z,70.37
2022-08-08T03:35:54.156Z,70.52
2022-08-08T03:38:54.352Z,71.49
2022-08-08T03:42:28.742Z,71.92
2022-08-08T03:44:55.630Z,71.59
2022-08-08T03:47:46.004Z,71.43
2022-08-08T03:50:34.555Z,71.78
2022-08-08T03:53:38.127Z,72.13
2022-08-08T03:56:32.089Z,72.22
2022-08-08T03:59:22.650Z,71.93
2022-08-08T04:02:33.498Z,71.73
2022-08-08T04:05:28.462Z,71.34
2022-08-08T04:08:33.646Z,71.18
2022-08-08T04:11:23.474Z,71.80
2022-08-08T04:14:35.564Z,70.48
2022-08-08T04:17:15.627Z,69.97
2022-08-08T04:20:19.060Z,70.26
2022-08-08T04:23:07.142Z,70.93
2022-08-08T04:25:52.536Z,70.11
2022-08-08T04:28:40.621Z,70.45
2022-08-08T04:31:56.710Z,70.11
2022-08-08T04:34:49.259Z,69.14
2022-08-08T04:37:36.733Z,68.81
2022-08-08T04:40:27.754Z,69.25
2022-08-08T04:43:13.651Z,68.33
2022-08-08T04:46:05.904Z,68.05
2022-08-08T04:48:52.876Z,67.38
2022-08-08T04:51:55.151Z,67.07
2022-08-08T04:54:42.133Z,66.30
2022-08-08T04:57:27.420Z,67.16
2022-08-08T05:00:14.422Z,66.41
2022-08-08T05:03:05.698Z,66.37
2022-08-08T05:05:53.338Z,66.36
2022-08-08T05:08:39.629Z,65.24
2022-08-08T05:11:25.958Z,65.39
2022-08-08T05:14:15.960Z,64.87
2022-08-08T05:17:09.051Z,64.20
2022-08-08T05:20:09.147Z,63.72
2022-08-08T05:23:00.326Z,62.46
2022-08-08T05:25:49.684Z,62.47
2022-08-08T05:28:56.663Z,62.37
2022-08-08T05:32:03.784Z,62.00
2022-08-08T05:34:49.476Z,61.50
2022-08-08T05:37:51.794Z,60.22
2022-08-08T05:40:48.828Z,59.99
2022-08-08T05:43:39.637Z,59.47
2022-08-08T05:46:42.028Z,59.40
2022-08-08T05:49:32.173Z,59.07
2022-08-08T05:52:32.089Z,59.28
2022-08-08T05:55:20.564Z,58.46
2022-08-08T05:58:17.746Z,58.76
2022-08-08T06:01:05.105Z,57.52
2022-08-08T06:03:53.661Z,56.52
2022-08-08T06:06:42.251Z,56.59
2022-08-08T06:09:59.384Z,56.43
2022-08-08T06:12:42.954Z,56.31
2022-08-08T06:15:31.695Z,55.13
2022-08-08T06:18:37.742Z,55.66
2022-08-08T06:21:32.484Z,54.85
2022-08-08T06:24:30.267Z,53.78
2022-08-08T06:27:23.322Z,52.86
2022-08-08T06:30:11.927Z,52.65
2022-08-08T06:33:13.232Z,52.27
2022-08-08T06:36:07.432Z,51.59
2022-08-08T06:38:58.978Z,51.10
2022-08-08T06:41:56.169Z,51.47
2022-08-08T06:44:44.702Z,50.78
2022-08-08T06:47:31.717Z,51.20
2022-08-08T06:50:32.379Z,49.26
2022-08-08T06:53:20.811Z,49.58
2022-08-08T06:56:11.549Z,48.23
2022-08-08T06:59:01.164Z,48.13
2022-08-08T07:02:26.531Z,47.94
2022-08-08T07:05:05.239Z,48.36
2022-08-08T07:08:03.095Z,47.39
2022-08-08T07:10:51.955Z,47.97
2022-08-08T07:14:00.932Z,46.53
2022-08-08T07:16:54.188Z,44.88
2022-08-08T07:19:44.622Z,45.20
2022-08-08T07:22:43.714Z,44.92
2022-08-08T07:25:35.266Z,44.28
2022-08-08T07:28:22.686Z,44.83
2022-08-08T07:31:08.050Z,44.93
2022-08-08T07:33:59.544Z,43.92
2022-08-08T07:36:50.183Z,42.62
2022-08-08T07:39:56.163Z,42.49
2022-08-08T07:42:50.850Z,42.10
2022-08-08T07:46:04.913Z,42.86
2022-08-08T07:48:40.441Z,41.71
2022-08-08T07:51:44.811Z,40.71
2022-08-08T07:54:35.838Z,40.34
2022-08-08T07:57:36.162Z,39.95
2022-08-08T08:00:31.301Z,39.77
2022-08-08T08:03:41.175Z,40.70
2022-08-08T08:06:28.623Z,39.90
2022-08-08T08:09:24.988Z,39.07
2022-08-08T08:12:26.522Z,38.38
2022-08-08T08:15:21.491Z,39.17
2022-08-08T08:18:14.406Z,38.22
2022-08-08T08:21:00.207Z,37.83
2022-08-08T08:23:44.019Z,37.39
2022-08-08T08:26:35.621Z,36.85
2022-08-08T08:29:22.825Z,36.53
2022-08-08T08:32:09.057Z,36.64
2022-08-08T08:34:58.020Z,34.57
2022-08-08T08:38:13.024Z,33.86
2022-08-08T08:40:51.239Z,32.44
2022-08-08T08:43:36.909Z,32.54
2022-08-08T08:46:28.919Z,32.95
2022-08-08T08:49:12.886Z,32.99
2022-08-08T08:52:04.548Z,32.35
2022-08-08T08:54:50.832Z,32.34
2022-08-08T08:57:41.614Z,31.74
2022-08-08T09:00:44.598Z,31.49
2022-08-08T09:03:46.961Z,31.86
2022-08-08T09:06:44.818Z,31.80
2022-08-08T09:09:47.706Z,32.47
2022-08-08T09:12:40.977Z,31.43
2022-08-08T09:15:41.556Z,30.57
2022-08-08T09:18:28.591Z,30.78
2022-08-08T09:21:56.669Z,31.47
2022-08-08T09:24:19.661Z,32.04
2022-08-08T09:27:20.065Z,31.49
2022-08-08T09:30:10.795Z,31.27
2022-08-08T09:33:12.705Z,31.73
2022-08-08T09:36:04.183Z,30.25
2022-08-08T09:38:55.032Z,30.48
2022-08-08T09:42:13.882Z,30.44
2022-08-08T09:45:08.077Z,30.48
2022-08-08T09:48:16.045Z,28.87
2022-08-08T09:51:05.936Z,28.46
2022-08-08T09:54:05.199Z,29.10
2022-08-08T09:56:56.746Z,29.87
2022-08-08T10:00:02.044Z,29.90
2022-08-08T10:02:58.910Z,29.45
2022-08-08T10:05:46.776Z,29.75
2022-08-08T10:08:33.044Z,29.12
2022-08-08T10:12:26.084Z,27.93
2022-08-08T10:14:35.495Z,28.26
2022-08-08T10:17:56.873Z,29.05
2022-08-08T10:20:41.369Z,28.53
2022-08-08T10:23:44.002Z,27.29
2022-08-08T10:26:57.437Z,26.63
2022-08-08T10:29:59.303Z,26.69
2022-08-08T10:32:51.143Z,25.86
2022-08-08T10:36:08.054Z,26.03
2022-08-08T10:38:41.249Z,25.47
2022-08-08T10:41:35.432Z,25.58
2022-08-08T10:44:38.787Z,25.23
2022-08-08T10:47:24.378Z,25.45
2022-08-08T10:50:15.742Z,25.16
2022-08-08T10:53:07.763Z,24.65
2022-08-08T10:55:59.325Z,24.42
2022-08-08T10:58:54.649Z,24.43
2022-08-08T11:01:40.249Z,24.52
2022-08-08T11:04:38.492Z,23.94
2022-08-08T11:08:30.188Z,23.87
2022-08-08T11:10:36.043Z,24.47
2022-08-08T11:13:29.022Z,23.49
2022-08-08T11:16:32.984Z,23.73
2022-08-08T11:19:19.598Z,22.73
2022-08-08T11:22:04.476Z,23.19
2022-08-08T11:24:50.394Z,22.18
2022-08-08T11:27:37.545Z,23.22
2022-08-08T11:30:24.667Z,23.51
2022-08-08T11:33:13.067Z,22.52
2022-08-08T11:35:57.789Z,22.91
2022-08-08T11:38:55.259Z,23.17
2022-08-08T11:41:40.690Z,23.44
2022-08-08T11:44:28.966Z,22.69
2022-08-08T11:47:17.266Z,22.90
2022-08-08T11:50:05.528Z,22.45
2022-08-08T11:52:54.573Z,23.36
2022-08-08T11:55:48.871Z,22.86
2022-08-08T11:58:36.348Z,23.34
2022-08-08T12:01:32.504Z,22.86
2022-08-08T12:04:20.395Z,22.49
2022-08-08T12:07:05.808Z,22.77
2022-08-08T12:10:01.053Z,23.00
2022-08-08T12:12:48.970Z,23.03
2022-08-08T12:15:41.744Z,22.76
2022-08-08T12:18:32.166Z,22.63
2022-08-08T12:21:25.946Z,22.55
2022-08-08T12:24:29.802Z,22.60
2022-08-08T12:27:19.845Z,22.82
2022-08-08T12:30:15.659Z,22.49
2022-08-08T12:33:02.519Z,22.23
2022-08-08T12:35:54.314Z,22.29
2022-08-08T12:38:48.772Z,23.21
2022-08-08T12:41:56.781Z,23.16
2022-08-08T12:44:41.227Z,23.67
2022-08-08T12:47:57.765Z,22.40
2022-08-08T12:50:46.712Z,22.87
2022-08-08T12:53:36.570Z,22.92
2022-08-08T12:56:34.214Z,23.16
2022-08-08T12:59:19.322Z,22.74
2022-08-08T13:02:28.474Z,22.58
2022-08-08T13:05:26.314Z,22.02
2022-08-08T13:08:36.330Z,22.26
2022-08-08T13:11:25.372Z,22.21
2022-08-08T13:14:13.016Z,21.37
2022-08-08T13:16:59.379Z,21.87
2022-08-08T13:19:49.827Z,21.57
2022-08-08T13:22:36.567Z,21.52
2022-08-08T13:25:23.187Z,21.87
2022-08-08T13:28:08.433Z,22.05
2022-08-08T13:30:54.344Z,21.65
2022-08-08T13:33:42.653Z,21.94
2022-08-08T13:36:28.249Z,22.09
2022-08-08T13:39:17.517Z,21.57
2022-08-08T13:42:01.830Z,21.06
2022-08-08T13:44:47.134Z,20.61
2022-08-08T13:47:31.130Z,20.81
2022-08-08T13:50:34.665Z,20.87
2022-08-08T13:53:27.443Z,20.85
2022-08-08T13:56:12.377Z,20.03
2022-08-08T13:58:58.112Z,20.24
2022-08-08T14:01:52.913Z,19.92
2022-08-08T14:04:52.754Z,20.19
2022-08-08T14:07:39.622Z,19.93
2022-08-08T14:10:32.526Z,20.39
2022-08-08T14:13:33.551Z,20.12
2022-08-08T14:16:18.749Z,20.38
2022-08-08T14:19:10.751Z,20.90
2022-08-08T14:21:59.780Z,20.66
2022-08-08T14:24:52.422Z,20.39
2022-08-08T14:27:40.340Z,20.39
2022-08-08T14:30:35.081Z,20.53
2022-08-08T14:33:27.154Z,20.93
2022-08-08T14:36:19.830Z,20.75
2022-08-08T14:39:11.690Z,20.70
2022-08-08T14:42:07.600Z,20.66
2022-08-08T14:45:00.312Z,20.09
2022-08-08T14:47:51.448Z,20.54
2022-08-08T14:50:39.233Z,20.58
2022-08-08T14:53:25.668Z,20.40
2022-08-08T14:56:09.967Z,19.97
2022-08-08T14:58:54.715Z,19.83
2022-08-08T15:01:41.315Z,20.38
2022-08-08T15:04:26.308Z,20.90
2022-08-08T15:07:24.239Z,20.96
2022-08-08T15:10:17.493Z,21.31
2022-08-08T15:13:04.821Z,21.23
2022-08-08T15:16:01.954Z,21.65
2022-08-08T15:18:51.332Z,21.92
2022-08-08T15:21:37.915Z,22.41
2022-08-08T15:24:31.054Z,23.04
2022-08-08T15:28:03.840Z,23.93
2022-08-08T15:30:21.173Z,23.69
2022-08-08T15:33:05.081Z,24.11
2022-08-08T15:35:48.968Z,24.08
2022-08-08T15:38:33.098Z,24.26
2022-08-08T15:41:16.987Z,24.33
2022-08-08T15:44:13.140Z,24.44
2022-08-08T15:46:58.940Z,24.98
2022-08-08T15:49:42.844Z,25.53
2022-08-08T15:52:26.947Z,25.74
2022-08-08T15:55:11.007Z,25.86
2022-08-08T15:57:54.906Z,25.71
2022-08-08T16:00:40.232Z,26.42
2022-08-08T16:03:33.444Z,26.49
2022-08-08T16:06:28.347Z,26.19
2022-08-08T16:13:04.685Z,27.19
2022-08-08T16:13:14.268Z,26.98
2022-08-08T16:15:20.783Z,27.66
2022-08-08T16:18:11.519Z,28.74
2022-08-08T16:21:00.387Z,29.15
2022-08-08T16:23:44.873Z,29.61
2022-08-08T16:26:34.331Z,30.20
2022-08-08T16:29:37.095Z,30.85
2022-08-08T16:32:25.341Z,32.05
2022-08-08T16:35:13.070Z,32.86
2022-08-08T16:37:57.582Z,32.98
2022-08-08T16:40:41.424Z,33.07
2022-08-08T16:43:25.331Z,33.23
2022-08-08T16:46:43.470Z,33.74
2022-08-08T16:49:13.274Z,34.23
2022-08-08T16:55:03.015Z,35.09
2022-08-08T16:55:53.667Z,35.84
2022-08-08T16:58:15.226Z,36.01
2022-08-08T17:01:00.691Z,36.52
2022-08-08T17:03:58.447Z,36.50
2022-08-08T17:06:44.222Z,36.88
2022-08-08T17:09:34.943Z,37.57
2022-08-08T17:12:29.168Z,37.66
2022-08-08T17:15:20.231Z,37.62
2022-08-08T17:18:10.625Z,38.10
2022-08-08T17:20:59.612Z,38.33
2022-08-08T17:23:59.013Z,38.00
2022-08-08T17:26:48.171Z,37.12
2022-08-08T17:29:36.613Z,36.87
2022-08-08T17:32:34.114Z,36.54
2022-08-08T17:35:55.923Z,36.36
2022-08-08T17:38:32.189Z,36.61
2022-08-08T17:41:16.745Z,36.78
2022-08-08T17:44:10.982Z,36.46
2022-08-08T17:46:57.025Z,36.10
2022-08-08T17:49:43.636Z,36.05
2022-08-08T17:52:28.127Z,36.29
2022-08-08T17:56:05.974Z,36.60
2022-08-08T17:58:17.928Z,36.63
2022-08-08T18:01:10.263Z,36.76
2022-08-08T18:03:54.792Z,36.67
2022-08-08T18:06:43.140Z,37.08
2022-08-08T18:09:37.852Z,37.39
2022-08-08T18:12:22.031Z,37.54
2022-08-08T18:15:09.639Z,37.95
2022-08-08T18:18:09.652Z,38.12
2022-08-08T18:20:59.584Z,38.05
2022-08-08T18:23:47.121Z,38.22
2022-08-08T18:26:40.011Z,38.05
2022-08-08T18:29:33.965Z,37.87
2022-08-08T18:32:18.516Z,38.03
2022-08-08T18:35:03.824Z,37.97
2022-08-08T18:38:03.815Z,37.90
2022-08-08T18:41:00.972Z,37.89
2022-08-08T18:43:47.187Z,37.92
2022-08-08T18:46:56.602Z,38.22
2022-08-08T18:49:57.316Z,37.98
2022-08-08T18:52:40.410Z,38.42
2022-08-08T18:55:27.865Z,38.75
2022-08-08T18:58:12.057Z,38.62
2022-08-08T19:00:55.780Z,38.91
2022-08-08T19:04:10.302Z,38.80
2022-08-08T19:06:43.733Z,38.74
2022-08-08T19:09:48.883Z,38.38
2022-08-08T19:12:36.547Z,38.28
2022-08-08T19:15:26.190Z,38.55
2022-08-08T19:18:33.471Z,39.03
2022-08-08T19:21:29.137Z,38.61
2022-08-08T19:24:42.903Z,38.73
2022-08-08T19:27:56.304Z,39.14
2022-08-08T19:30:26.430Z,39.02
2022-08-08T19:33:10.519Z,39.00
2022-08-08T19:36:08.433Z,39.09
2022-08-08T19:38:53.131Z,39.14
2022-08-08T19:41:37.314Z,39.60
2022-08-08T19:44:42.469Z,39.60
2022-08-08T19:47:27.076Z,39.40
2022-08-08T19:50:17.884Z,39.29
2022-08-08T19:53:04.444Z,39.44
2022-08-08T19:56:12.721Z,39.78
2022-08-08T19:58:56.817Z,40.10
2022-08-08T20:02:01.544Z,40.19
2022-08-08T20:04:46.965Z,40.57
2022-08-08T20:08:29.835Z,40.51
2022-08-08T20:10:36.027Z,40.50
2022-08-08T20:14:31.689Z,40.53
2022-08-08T20:16:29.504Z,40.52
2022-08-08T20:19:15.229Z,40.85
2022-08-08T20:22:02.866Z,40.54
2022-08-08T20:24:48.842Z,40.17
2022-08-08T20:27:49.132Z,40.58
2022-08-08T20:30:56.089Z,40.28
2022-08-08T20:34:02.644Z,40.16
2022-08-08T20:36:44.065Z,40.08
2022-08-08T20:39:39.709Z,39.55
2022-08-08T20:42:36.470Z,38.95
2022-08-08T20:45:57.869Z,38.92
2022-08-08T20:48:26.136Z,38.93
2022-08-08T20:51:12.902Z,38.90
2022-08-08T20:54:04.212Z,38.54
2022-08-08T20:57:17.542Z,39.06
2022-08-08T20:59:59.427Z,39.24
2022-08-08T21:02:52.911Z,39.28
2022-08-08T21:05:58.517Z,39.35
2022-08-08T21:08:49.249Z,38.58
2022-08-08T21:11:51.450Z,38.55
2022-08-08T21:14:37.823Z,38.14
2022-08-08T21:17:23.381Z,37.89
2022-08-08T21:20:08.408Z,37.51
2022-08-08T21:22:52.292Z,36.81
2022-08-08T21:25:36.724Z,36.77
2022-08-08T21:28:36.044Z,36.47
2022-08-08T21:31:22.854Z,36.56
2022-08-08T21:34:07.667Z,37.08
2022-08-08T21:36:54.572Z,37.10
2022-08-08T21:39:56.598Z,37.30
2022-08-08T21:42:41.312Z,37.96
2022-08-08T21:47:59.339Z,37.45
2022-08-08T21:48:40.263Z,37.41
2022-08-08T21:54:16.841Z,37.73
2022-08-08T21:55:01.477Z,38.00
2022-08-08T21:57:42.996Z,38.03
2022-08-08T22:00:28.644Z,37.58
2022-08-08T22:03:18.127Z,37.88
2022-08-08T22:06:02.141Z,37.66
2022-08-08T22:08:46.050Z,38.27
2022-08-08T22:12:02.419Z,38.35
2022-08-08T22:14:38.717Z,38.81
2022-08-08T22:17:28.161Z,39.39
2022-08-08T22:20:23.677Z,39.67
2022-08-08T22:23:08.311Z,40.62
2022-08-08T22:26:26.610Z,40.86
2022-08-08T22:29:14.713Z,41.88
2022-08-08T22:32:02.138Z,41.92
2022-08-08T22:34:50.503Z,42.75
2022-08-08T22:37:53.330Z,43.05
2022-08-08T22:40:38.515Z,43.46
2022-08-08T22:43:22.494Z,43.82
2022-08-08T22:46:07.698Z,43.71
2022-08-08T22:48:54.538Z,44.08
2022-08-08T22:51:42.874Z,43.93
2022-08-08T22:54:59.039Z,44.23
2022-08-08T22:57:43.872Z,44.07
2022-08-08T23:00:33.149Z,44.41
2022-08-08T23:03:17.955Z,44.88
2022-08-08T23:06:05.421Z,45.27
2022-08-08T23:08:55.988Z,45.52
2022-08-08T23:12:27.506Z,45.47
2022-08-08T23:14:56.036Z,46.10
2022-08-08T23:17:46.503Z,46.43
2022-08-08T23:20:38.088Z,46.53
2022-08-08T23:23:22.014Z,47.57
2022-08-08T23:26:08.491Z,47.05
2022-08-08T23:28:55.244Z,48.06
2022-08-08T23:31:41.770Z,48.26
2022-08-08T23:34:25.750Z,48.18
2022-08-08T23:37:13.259Z,48.13
2022-08-08T23:39:58.049Z,48.38
2022-08-08T23:42:45.219Z,49.50
2022-08-08T23:49:04.916Z,49.39
2022-08-08T23:49:06.941Z,49.77
2022-08-08T23:51:42.142Z,50.38
2022-08-08T23:54:59.910Z,51.13
2022-08-08T23:57:52.064Z,51.71
